sensor_id;sensor_type;location;lat;lon;timestamp;P1;durP1;ratioP1;P2;durP2;ratioP2
9254;SDS011;4663;49.120;9.730;2022-12-29T00:01:13;12.60;;;11.80;;
9254;SDS011;4663;49.120;9.730;2022-12-29T00:03:39;12.83;;;11.90;;
9254;SDS011;4663;49.120;9.730;2022-12-29T00:06:04;12.87;;;12.27;;
9254;SDS011;4663;49.120;9.730;2022-12-29T00:08:29;13.57;;;12.60;;
9254;SDS011;4663;49.120;9.730;2022-12-29T00:11:07;12.87;;;12.03;;
9254;SDS011;4663;49.120;9.730;2022-12-29T00:13:34;11.83;;;11.23;;
9254;SDS011;4663;49.120;9.730;2022-12-29T00:16:18;13.27;;;12.60;;
9254;SDS011;4663;49.120;9.730;2022-12-29T00:18:44;12.10;;;11.50;;
9254;SDS011;4663;49.120;9.730;2022-12-29T00:21:12;12.90;;;12.20;;
9254;SDS011;4663;49.120;9.730;2022-12-29T00:23:57;14.23;;;13.50;;
9254;SDS011;4663;49.120;9.730;2022-12-29T00:26:56;12.83;;;12.13;;
9254;SDS011;4663;49.120;9.730;2022-12-29T00:29:51;13.13;;;12.43;;
9254;SDS011;4663;49.120;9.730;2022-12-29T00:32:35;12.47;;;11.80;;
9254;SDS011;4663;49.120;9.730;2022-12-29T00:35:27;12.57;;;11.83;;
9254;SDS011;4663;49.120;9.730;2022-12-29T00:37:55;12.83;;;12.13;;
9254;SDS011;4663;49.120;9.730;2022-12-29T00:40:42;12.77;;;12.07;;
9254;SDS011;4663;49.120;9.730;2022-12-29T00:43:27;12.00;;;11.40;;
9254;SDS011;4663;49.120;9.730;2022-12-29T00:46:11;12.67;;;12.07;;
9254;SDS011;4663;49.120;9.730;2022-12-29T00:48:36;12.73;;;12.03;;
9254;SDS011;4663;49.120;9.730;2022-12-29T00:51:20;12.20;;;11.50;;
9254;SDS011;4663;49.120;9.730;2022-12-29T00:53:45;14.63;;;13.87;;
9254;SDS011;4663;49.120;9.730;2022-12-29T00:56:11;15.10;;;14.37;;
9254;SDS011;4663;49.120;9.730;2022-12-29T00:58:36;16.20;;;15.33;;
9254;SDS011;4663;49.120;9.730;2022-12-29T01:01:05;18.47;;;17.50;;
9254;SDS011;4663;49.120;9.730;2022-12-29T01:03:33;17.57;;;16.67;;
9254;SDS011;4663;49.120;9.730;2022-12-29T01:06:03;21.47;;;20.40;;
9254;SDS011;4663;49.120;9.730;2022-12-29T01:08:30;25.17;;;23.90;;
9254;SDS011;4663;49.120;9.730;2022-12-29T01:10:59;27.90;;;26.57;;
9254;SDS011;4663;49.120;9.730;2022-12-29T01:13:25;29.50;;;28.10;;
9254;SDS011;4663;49.120;9.730;2022-12-29T01:15:50;34.13;;;32.37;;
9254;SDS011;4663;49.120;9.730;2022-12-29T01:18:16;37.73;;;35.70;;
9254;SDS011;4663;49.120;9.730;2022-12-29T01:20:41;40.80;;;38.80;;
9254;SDS011;4663;49.120;9.730;2022-12-29T01:23:07;40.53;;;38.57;;
9254;SDS011;4663;49.120;9.730;2022-12-29T01:25:32;43.67;;;41.60;;
9254;SDS011;4663;49.120;9.730;2022-12-29T01:27:58;45.97;;;43.77;;
9254;SDS011;4663;49.120;9.730;2022-12-29T01:30:23;45.37;;;43.27;;
9254;SDS011;4663;49.120;9.730;2022-12-29T01:32:48;44.97;;;42.77;;
9254;SDS011;4663;49.120;9.730;2022-12-29T01:35:14;45.27;;;43.10;;
9254;SDS011;4663;49.120;9.730;2022-12-29T01:37:39;45.30;;;43.07;;
9254;SDS011;4663;49.120;9.730;2022-12-29T01:40:04;45.93;;;43.70;;
9254;SDS011;4663;49.120;9.730;2022-12-29T01:42:30;44.93;;;42.77;;
9254;SDS011;4663;49.120;9.730;2022-12-29T01:44:56;46.60;;;44.33;;
9254;SDS011;4663;49.120;9.730;2022-12-29T01:47:29;43.60;;;41.43;;
9254;SDS011;4663;49.120;9.730;2022-12-29T01:50:08;42.33;;;40.23;;
9254;SDS011;4663;49.120;9.730;2022-12-29T01:52:38;43.10;;;40.97;;
9254;SDS011;4663;49.120;9.730;2022-12-29T01:55:08;44.77;;;42.53;;
9254;SDS011;4663;49.120;9.730;2022-12-29T01:57:37;43.60;;;41.50;;
9254;SDS011;4663;49.120;9.730;2022-12-29T02:00:07;44.37;;;42.17;;
9254;SDS011;4663;49.120;9.730;2022-12-29T02:02:34;45.17;;;42.97;;
9254;SDS011;4663;49.120;9.730;2022-12-29T02:05:03;40.50;;;38.47;;
9254;SDS011;4663;49.120;9.730;2022-12-29T02:07:34;44.07;;;41.87;;
9254;SDS011;4663;49.120;9.730;2022-12-29T02:09:59;43.90;;;41.77;;
9254;SDS011;4663;49.120;9.730;2022-12-29T02:12:26;47.13;;;44.83;;
9254;SDS011;4663;49.120;9.730;2022-12-29T02:14:53;46.50;;;44.20;;
9254;SDS011;4663;49.120;9.730;2022-12-29T02:37:13;44.23;;;42.10;;
9254;SDS011;4663;49.120;9.730;2022-12-29T02:50:52;38.90;;;37.00;;
9254;SDS011;4663;49.120;9.730;2022-12-29T02:53:19;41.07;;;38.87;;
9254;SDS011;4663;49.120;9.730;2022-12-29T02:56:06;40.30;;;38.37;;
9254;SDS011;4663;49.120;9.730;2022-12-29T02:58:31;38.20;;;36.33;;
9254;SDS011;4663;49.120;9.730;2022-12-29T03:04:18;39.17;;;37.17;;
9254;SDS011;4663;49.120;9.730;2022-12-29T03:09:49;36.27;;;34.53;;
9254;SDS011;4663;49.120;9.730;2022-12-29T03:12:30;35.80;;;33.97;;
9254;SDS011;4663;49.120;9.730;2022-12-29T03:15:22;37.97;;;36.13;;
9254;SDS011;4663;49.120;9.730;2022-12-29T03:18:15;38.43;;;36.60;;
9254;SDS011;4663;49.120;9.730;2022-12-29T03:20:49;37.73;;;35.90;;
9254;SDS011;4663;49.120;9.730;2022-12-29T03:23:19;36.10;;;34.37;;
9254;SDS011;4663;49.120;9.730;2022-12-29T03:25:48;35.67;;;33.93;;
9254;SDS011;4663;49.120;9.730;2022-12-29T03:28:21;34.13;;;32.47;;
9254;SDS011;4663;49.120;9.730;2022-12-29T03:30:50;35.37;;;33.63;;
9254;SDS011;4663;49.120;9.730;2022-12-29T03:33:17;32.87;;;31.13;;
9254;SDS011;4663;49.120;9.730;2022-12-29T03:35:46;33.57;;;31.87;;
9254;SDS011;4663;49.120;9.730;2022-12-29T03:38:19;33.50;;;31.87;;
9254;SDS011;4663;49.120;9.730;2022-12-29T03:40:50;32.90;;;31.20;;
9254;SDS011;4663;49.120;9.730;2022-12-29T03:43:21;32.73;;;31.17;;
9254;SDS011;4663;49.120;9.730;2022-12-29T03:45:47;32.63;;;31.10;;
9254;SDS011;4663;49.120;9.730;2022-12-29T03:48:12;31.10;;;29.57;;
9254;SDS011;4663;49.120;9.730;2022-12-29T03:50:37;32.53;;;30.93;;
9254;SDS011;4663;49.120;9.730;2022-12-29T03:53:03;33.63;;;31.80;;
9254;SDS011;4663;49.120;9.730;2022-12-29T03:55:28;34.77;;;33.13;;
9254;SDS011;4663;49.120;9.730;2022-12-29T03:57:54;33.27;;;31.70;;
9254;SDS011;4663;49.120;9.730;2022-12-29T04:00:19;32.10;;;30.57;;
9254;SDS011;4663;49.120;9.730;2022-12-29T04:02:44;32.67;;;31.03;;
9254;SDS011;4663;49.120;9.730;2022-12-29T04:05:10;35.27;;;33.50;;
9254;SDS011;4663;49.120;9.730;2022-12-29T04:07:35;31.70;;;30.17;;
9254;SDS011;4663;49.120;9.730;2022-12-29T04:10:01;35.83;;;34.07;;
9254;SDS011;4663;49.120;9.730;2022-12-29T04:12:26;30.67;;;28.87;;
9254;SDS011;4663;49.120;9.730;2022-12-29T04:14:52;30.63;;;29.17;;
9254;SDS011;4663;49.120;9.730;2022-12-29T04:17:17;30.13;;;28.57;;
9254;SDS011;4663;49.120;9.730;2022-12-29T04:19:42;30.07;;;28.47;;
9254;SDS011;4663;49.120;9.730;2022-12-29T04:22:08;27.93;;;26.63;;
9254;SDS011;4663;49.120;9.730;2022-12-29T04:24:33;24.60;;;23.33;;
9254;SDS011;4663;49.120;9.730;2022-12-29T04:26:58;24.27;;;23.03;;
9254;SDS011;4663;49.120;9.730;2022-12-29T04:29:24;25.73;;;24.40;;
9254;SDS011;4663;49.120;9.730;2022-12-29T04:31:49;21.00;;;19.93;;
9254;SDS011;4663;49.120;9.730;2022-12-29T04:34:14;20.52;;;19.42;;
9254;SDS011;4663;49.120;9.730;2022-12-29T04:36:40;19.10;;;18.20;;
9254;SDS011;4663;49.120;9.730;2022-12-29T04:39:06;15.30;;;14.60;;
9254;SDS011;4663;49.120;9.730;2022-12-29T04:41:31;15.43;;;14.70;;
9254;SDS011;4663;49.120;9.730;2022-12-29T04:43:57;15.77;;;15.00;;
9254;SDS011;4663;49.120;9.730;2022-12-29T04:46:22;12.18;;;11.57;;
9254;SDS011;4663;49.120;9.730;2022-12-29T04:48:48;12.47;;;11.80;;
9254;SDS011;4663;49.120;9.730;2022-12-29T04:51:13;12.77;;;12.07;;
9254;SDS011;4663;49.120;9.730;2022-12-29T04:53:39;13.03;;;12.20;;
9254;SDS011;4663;49.120;9.730;2022-12-29T04:56:04;15.75;;;14.52;;
9254;SDS011;4663;49.120;9.730;2022-12-29T04:58:30;15.87;;;15.00;;
9254;SDS011;4663;49.120;9.730;2022-12-29T05:00:55;16.10;;;15.00;;
9254;SDS011;4663;49.120;9.730;2022-12-29T05:03:21;18.73;;;17.80;;
9254;SDS011;4663;49.120;9.730;2022-12-29T05:05:46;19.47;;;18.57;;
9254;SDS011;4663;49.120;9.730;2022-12-29T05:08:11;22.37;;;21.07;;
9254;SDS011;4663;49.120;9.730;2022-12-29T05:10:37;25.83;;;24.60;;
9254;SDS011;4663;49.120;9.730;2022-12-29T05:13:02;25.97;;;24.70;;
9254;SDS011;4663;49.120;9.730;2022-12-29T05:15:27;26.27;;;24.90;;
9254;SDS011;4663;49.120;9.730;2022-12-29T05:17:53;29.07;;;27.47;;
9254;SDS011;4663;49.120;9.730;2022-12-29T05:20:18;26.27;;;24.83;;
9254;SDS011;4663;49.120;9.730;2022-12-29T05:22:43;23.70;;;22.60;;
9254;SDS011;4663;49.120;9.730;2022-12-29T05:25:09;21.77;;;20.70;;
9254;SDS011;4663;49.120;9.730;2022-12-29T05:27:34;21.53;;;20.47;;
9254;SDS011;4663;49.120;9.730;2022-12-29T05:30:00;19.80;;;18.83;;
9254;SDS011;4663;49.120;9.730;2022-12-29T05:32:25;18.80;;;17.90;;
9254;SDS011;4663;49.120;9.730;2022-12-29T05:34:51;19.17;;;18.20;;
9254;SDS011;4663;49.120;9.730;2022-12-29T05:37:16;16.87;;;15.93;;
9254;SDS011;4663;49.120;9.730;2022-12-29T05:39:42;17.27;;;16.20;;
9254;SDS011;4663;49.120;9.730;2022-12-29T05:42:07;16.20;;;15.40;;
9254;SDS011;4663;49.120;9.730;2022-12-29T05:44:32;15.20;;;14.40;;
9254;SDS011;4663;49.120;9.730;2022-12-29T05:46:58;14.80;;;13.93;;
9254;SDS011;4663;49.120;9.730;2022-12-29T05:49:23;16.43;;;15.60;;
9254;SDS011;4663;49.120;9.730;2022-12-29T05:51:49;16.00;;;15.20;;
9254;SDS011;4663;49.120;9.730;2022-12-29T05:54:14;16.17;;;15.10;;
9254;SDS011;4663;49.120;9.730;2022-12-29T05:56:40;19.27;;;18.27;;
9254;SDS011;4663;49.120;9.730;2022-12-29T05:59:05;16.65;;;15.85;;
9254;SDS011;4663;49.120;9.730;2022-12-29T06:01:30;14.90;;;14.20;;
9254;SDS011;4663;49.120;9.730;2022-12-29T06:03:56;15.00;;;14.20;;
9254;SDS011;4663;49.120;9.730;2022-12-29T06:06:21;14.27;;;13.57;;
9254;SDS011;4663;49.120;9.730;2022-12-29T06:08:46;14.37;;;13.67;;
9254;SDS011;4663;49.120;9.730;2022-12-29T06:11:12;14.73;;;14.00;;
9254;SDS011;4663;49.120;9.730;2022-12-29T06:13:37;13.47;;;12.87;;
9254;SDS011;4663;49.120;9.730;2022-12-29T06:16:03;12.43;;;11.73;;
9254;SDS011;4663;49.120;9.730;2022-12-29T06:18:28;12.67;;;11.87;;
9254;SDS011;4663;49.120;9.730;2022-12-29T06:20:54;12.37;;;11.57;;
9254;SDS011;4663;49.120;9.730;2022-12-29T06:23:25;13.10;;;12.30;;
9254;SDS011;4663;49.120;9.730;2022-12-29T06:25:50;12.60;;;11.90;;
9254;SDS011;4663;49.120;9.730;2022-12-29T06:28:15;12.70;;;12.00;;
9254;SDS011;4663;49.120;9.730;2022-12-29T06:30:43;12.20;;;11.50;;
9254;SDS011;4663;49.120;9.730;2022-12-29T06:33:12;12.47;;;11.87;;
9254;SDS011;4663;49.120;9.730;2022-12-29T06:35:37;13.13;;;12.52;;
9254;SDS011;4663;49.120;9.730;2022-12-29T06:38:03;13.52;;;12.70;;
9254;SDS011;4663;49.120;9.730;2022-12-29T06:40:28;14.20;;;13.43;;
9254;SDS011;4663;49.120;9.730;2022-12-29T06:42:54;13.27;;;12.57;;
9254;SDS011;4663;49.120;9.730;2022-12-29T06:45:20;14.27;;;13.47;;
9254;SDS011;4663;49.120;9.730;2022-12-29T06:47:45;14.15;;;13.43;;
9254;SDS011;4663;49.120;9.730;2022-12-29T06:50:10;14.93;;;14.17;;
9254;SDS011;4663;49.120;9.730;2022-12-29T06:52:36;14.52;;;13.73;;
9254;SDS011;4663;49.120;9.730;2022-12-29T06:55:01;13.77;;;13.07;;
9254;SDS011;4663;49.120;9.730;2022-12-29T06:57:26;15.97;;;15.07;;
9254;SDS011;4663;49.120;9.730;2022-12-29T06:59:52;13.52;;;12.77;;
9254;SDS011;4663;49.120;9.730;2022-12-29T07:02:20;16.45;;;15.23;;
9254;SDS011;4663;49.120;9.730;2022-12-29T07:04:46;16.27;;;15.48;;
9254;SDS011;4663;49.120;9.730;2022-12-29T07:07:11;17.95;;;16.95;;
9254;SDS011;4663;49.120;9.730;2022-12-29T07:09:36;17.87;;;17.03;;
9254;SDS011;4663;49.120;9.730;2022-12-29T07:12:02;19.83;;;18.80;;
9254;SDS011;4663;49.120;9.730;2022-12-29T07:14:28;20.52;;;19.48;;
9254;SDS011;4663;49.120;9.730;2022-12-29T07:16:53;23.13;;;21.90;;
9254;SDS011;4663;49.120;9.730;2022-12-29T07:19:18;23.42;;;22.23;;
9254;SDS011;4663;49.120;9.730;2022-12-29T07:21:44;25.27;;;24.02;;
9254;SDS011;4663;49.120;9.730;2022-12-29T07:24:09;28.33;;;26.88;;
9254;SDS011;4663;49.120;9.730;2022-12-29T07:26:34;30.05;;;28.65;;
9254;SDS011;4663;49.120;9.730;2022-12-29T07:29:01;31.40;;;29.85;;
9254;SDS011;4663;49.120;9.730;2022-12-29T07:31:27;29.13;;;27.75;;
9254;SDS011;4663;49.120;9.730;2022-12-29T07:33:52;30.90;;;29.40;;
9254;SDS011;4663;49.120;9.730;2022-12-29T07:36:17;31.65;;;30.05;;
9254;SDS011;4663;49.120;9.730;2022-12-29T07:38:45;31.38;;;29.83;;
9254;SDS011;4663;49.120;9.730;2022-12-29T07:41:11;31.38;;;29.88;;
9254;SDS011;4663;49.120;9.730;2022-12-29T07:43:36;32.67;;;31.10;;
9254;SDS011;4663;49.120;9.730;2022-12-29T07:46:02;32.60;;;31.05;;
9254;SDS011;4663;49.120;9.730;2022-12-29T07:48:27;35.17;;;33.50;;
9254;SDS011;4663;49.120;9.730;2022-12-29T07:50:53;35.45;;;33.70;;
9254;SDS011;4663;49.120;9.730;2022-12-29T07:53:19;33.53;;;31.90;;
9254;SDS011;4663;49.120;9.730;2022-12-29T07:55:44;34.25;;;32.40;;
9254;SDS011;4663;49.120;9.730;2022-12-29T07:58:10;34.63;;;32.92;;
9254;SDS011;4663;49.120;9.730;2022-12-29T08:00:35;33.22;;;31.63;;
9254;SDS011;4663;49.120;9.730;2022-12-29T08:03:00;32.00;;;30.45;;
9254;SDS011;4663;49.120;9.730;2022-12-29T08:05:26;32.40;;;30.90;;
9254;SDS011;4663;49.120;9.730;2022-12-29T08:07:51;33.15;;;31.45;;
9254;SDS011;4663;49.120;9.730;2022-12-29T08:10:17;32.70;;;30.98;;
9254;SDS011;4663;49.120;9.730;2022-12-29T08:12:42;32.25;;;30.58;;
9254;SDS011;4663;49.120;9.730;2022-12-29T08:15:09;32.00;;;30.42;;
9254;SDS011;4663;49.120;9.730;2022-12-29T08:17:35;31.67;;;30.15;;
9254;SDS011;4663;49.120;9.730;2022-12-29T08:20:01;30.92;;;29.20;;
9254;SDS011;4663;49.120;9.730;2022-12-29T08:22:27;32.42;;;30.85;;
9254;SDS011;4663;49.120;9.730;2022-12-29T08:24:52;30.42;;;28.92;;
9254;SDS011;4663;49.120;9.730;2022-12-29T08:27:18;31.65;;;30.10;;
9254;SDS011;4663;49.120;9.730;2022-12-29T08:29:44;31.13;;;29.63;;
9254;SDS011;4663;49.120;9.730;2022-12-29T08:32:09;29.20;;;27.70;;
9254;SDS011;4663;49.120;9.730;2022-12-29T08:34:35;30.40;;;28.88;;
9254;SDS011;4663;49.120;9.730;2022-12-29T08:37:00;28.95;;;27.45;;
9254;SDS011;4663;49.120;9.730;2022-12-29T08:39:26;28.38;;;26.92;;
9254;SDS011;4663;49.120;9.730;2022-12-29T08:41:52;29.00;;;27.65;;
9254;SDS011;4663;49.120;9.730;2022-12-29T08:44:17;29.02;;;27.58;;
9254;SDS011;4663;49.120;9.730;2022-12-29T08:46:42;28.15;;;26.60;;
9254;SDS011;4663;49.120;9.730;2022-12-29T08:49:08;24.27;;;22.98;;
9254;SDS011;4663;49.120;9.730;2022-12-29T08:51:33;23.58;;;22.38;;
9254;SDS011;4663;49.120;9.730;2022-12-29T08:53:59;23.00;;;21.75;;
9254;SDS011;4663;49.120;9.730;2022-12-29T08:56:25;21.02;;;20.00;;
9254;SDS011;4663;49.120;9.730;2022-12-29T08:58:51;20.58;;;19.58;;
9254;SDS011;4663;49.120;9.730;2022-12-29T09:01:17;19.13;;;18.08;;
9254;SDS011;4663;49.120;9.730;2022-12-29T09:03:43;19.27;;;18.00;;
9254;SDS011;4663;49.120;9.730;2022-12-29T09:06:08;16.92;;;16.02;;
9254;SDS011;4663;49.120;9.730;2022-12-29T09:08:33;16.00;;;15.20;;
9254;SDS011;4663;49.120;9.730;2022-12-29T09:11:08;14.98;;;14.07;;
9254;SDS011;4663;49.120;9.730;2022-12-29T09:13:35;14.27;;;13.32;;
9254;SDS011;4663;49.120;9.730;2022-12-29T09:16:01;13.25;;;12.65;;
9254;SDS011;4663;49.120;9.730;2022-12-29T09:18:26;13.35;;;12.55;;
9254;SDS011;4663;49.120;9.730;2022-12-29T09:20:55;13.15;;;12.50;;
9254;SDS011;4663;49.120;9.730;2022-12-29T09:23:24;12.77;;;11.98;;
9254;SDS011;4663;49.120;9.730;2022-12-29T09:25:50;13.32;;;12.73;;
9254;SDS011;4663;49.120;9.730;2022-12-29T09:28:15;12.38;;;11.70;;
9254;SDS011;4663;49.120;9.730;2022-12-29T09:30:41;13.70;;;13.00;;
9254;SDS011;4663;49.120;9.730;2022-12-29T09:33:07;14.00;;;13.30;;
9254;SDS011;4663;49.120;9.730;2022-12-29T09:35:32;13.30;;;12.52;;
9254;SDS011;4663;49.120;9.730;2022-12-29T09:37:58;12.55;;;11.95;;
9254;SDS011;4663;49.120;9.730;2022-12-29T09:40:27;12.63;;;11.95;;
9254;SDS011;4663;49.120;9.730;2022-12-29T09:43:10;13.50;;;12.80;;
9254;SDS011;4663;49.120;9.730;2022-12-29T09:46:24;13.05;;;12.25;;
9254;SDS011;4663;49.120;9.730;2022-12-29T09:48:50;11.48;;;10.88;;
9254;SDS011;4663;49.120;9.730;2022-12-29T09:51:25;12.07;;;11.48;;
9254;SDS011;4663;49.120;9.730;2022-12-29T09:53:58;12.00;;;11.30;;
9254;SDS011;4663;49.120;9.730;2022-12-29T09:56:29;12.15;;;11.45;;
9254;SDS011;4663;49.120;9.730;2022-12-29T09:58:59;12.68;;;11.98;;
9254;SDS011;4663;49.120;9.730;2022-12-29T10:01:43;13.07;;;12.38;;
9254;SDS011;4663;49.120;9.730;2022-12-29T10:04:12;13.23;;;12.48;;
9254;SDS011;4663;49.120;9.730;2022-12-29T10:25:55;13.35;;;12.73;;
9254;SDS011;4663;49.120;9.730;2022-12-29T10:28:23;13.15;;;12.18;;
9254;SDS011;4663;49.120;9.730;2022-12-29T10:30:55;13.23;;;12.52;;
9254;SDS011;4663;49.120;9.730;2022-12-29T10:33:26;13.55;;;12.82;;
9254;SDS011;4663;49.120;9.730;2022-12-29T10:35:59;13.35;;;12.65;;
9254;SDS011;4663;49.120;9.730;2022-12-29T10:38:39;12.60;;;12.00;;
9254;SDS011;4663;49.120;9.730;2022-12-29T10:41:16;14.30;;;13.60;;
9254;SDS011;4663;49.120;9.730;2022-12-29T10:44:07;13.98;;;13.00;;
9254;SDS011;4663;49.120;9.730;2022-12-29T10:46:37;13.68;;;12.98;;
9254;SDS011;4663;49.120;9.730;2022-12-29T10:49:04;14.20;;;13.25;;
9254;SDS011;4663;49.120;9.730;2022-12-29T10:51:32;14.65;;;13.85;;
9254;SDS011;4663;49.120;9.730;2022-12-29T10:56:44;14.07;;;13.35;;
9254;SDS011;4663;49.120;9.730;2022-12-29T10:59:25;14.00;;;13.30;;
9254;SDS011;4663;49.120;9.730;2022-12-29T11:07:18;13.75;;;13.05;;
9254;SDS011;4663;49.120;9.730;2022-12-29T11:09:45;14.48;;;13.73;;
9254;SDS011;4663;49.120;9.730;2022-12-29T11:12:27;14.15;;;13.43;;
9254;SDS011;4663;49.120;9.730;2022-12-29T11:15:15;16.02;;;15.15;;
9254;SDS011;4663;49.120;9.730;2022-12-29T11:17:48;16.85;;;15.85;;
9254;SDS011;4663;49.120;9.730;2022-12-29T11:20:37;16.60;;;15.48;;
9254;SDS011;4663;49.120;9.730;2022-12-29T11:28:30;17.95;;;16.92;;
9254;SDS011;4663;49.120;9.730;2022-12-29T11:31:00;21.75;;;20.52;;
9254;SDS011;4663;49.120;9.730;2022-12-29T11:33:31;20.88;;;19.27;;
9254;SDS011;4663;49.120;9.730;2022-12-29T11:35:58;22.10;;;20.85;;
9254;SDS011;4663;49.120;9.730;2022-12-29T11:38:30;20.33;;;19.25;;
9254;SDS011;4663;49.120;9.730;2022-12-29T11:41:02;20.38;;;19.10;;
9254;SDS011;4663;49.120;9.730;2022-12-29T11:43:33;19.80;;;18.52;;
9254;SDS011;4663;49.120;9.730;2022-12-29T11:46:02;19.05;;;17.83;;
9254;SDS011;4663;49.120;9.730;2022-12-29T11:48:33;17.83;;;16.85;;
9254;SDS011;4663;49.120;9.730;2022-12-29T11:51:04;18.27;;;17.17;;
9254;SDS011;4663;49.120;9.730;2022-12-29T11:56:17;17.42;;;16.30;;
9254;SDS011;4663;49.120;9.730;2022-12-29T12:02:14;14.60;;;13.80;;
9254;SDS011;4663;49.120;9.730;2022-12-29T12:04:59;16.25;;;15.15;;
9254;SDS011;4663;49.120;9.730;2022-12-29T12:07:37;14.18;;;13.38;;
9254;SDS011;4663;49.120;9.730;2022-12-29T12:10:06;14.68;;;13.77;;
9254;SDS011;4663;49.120;9.730;2022-12-29T12:15:20;15.23;;;14.23;;
9254;SDS011;4663;49.120;9.730;2022-12-29T12:18:01;16.35;;;15.25;;
9254;SDS011;4663;49.120;9.730;2022-12-29T12:23:05;16.15;;;15.13;;
9254;SDS011;4663;49.120;9.730;2022-12-29T12:28:40;13.18;;;12.55;;
9254;SDS011;4663;49.120;9.730;2022-12-29T12:31:14;14.80;;;14.00;;
9254;SDS011;4663;49.120;9.730;2022-12-29T12:33:44;17.45;;;16.40;;
9254;SDS011;4663;49.120;9.730;2022-12-29T12:44:10;14.82;;;14.05;;
9254;SDS011;4663;49.120;9.730;2022-12-29T12:55:14;14.80;;;13.80;;
9254;SDS011;4663;49.120;9.730;2022-12-29T13:00:56;14.43;;;13.73;;
9254;SDS011;4663;49.120;9.730;2022-12-29T13:06:18;15.52;;;14.73;;
9254;SDS011;4663;49.120;9.730;2022-12-29T13:09:09;15.15;;;14.25;;
9254;SDS011;4663;49.120;9.730;2022-12-29T13:16:43;15.77;;;14.80;;
9254;SDS011;4663;49.120;9.730;2022-12-29T13:19:29;14.98;;;14.13;;
9254;SDS011;4663;49.120;9.730;2022-12-29T13:28:00;14.93;;;14.15;;
9254;SDS011;4663;49.120;9.730;2022-12-29T13:36:09;20.27;;;18.70;;
9254;SDS011;4663;49.120;9.730;2022-12-29T13:38:38;16.23;;;15.15;;
9254;SDS011;4663;49.120;9.730;2022-12-29T13:41:09;15.50;;;14.68;;
9254;SDS011;4663;49.120;9.730;2022-12-29T13:43:39;16.83;;;15.70;;
9254;SDS011;4663;49.120;9.730;2022-12-29T13:46:09;19.67;;;18.05;;
9254;SDS011;4663;49.120;9.730;2022-12-29T13:48:43;19.92;;;18.27;;
9254;SDS011;4663;49.120;9.730;2022-12-29T13:51:13;14.63;;;13.82;;
9254;SDS011;4663;49.120;9.730;2022-12-29T14:07:47;13.82;;;13.13;;
9254;SDS011;4663;49.120;9.730;2022-12-29T14:13:16;13.50;;;12.80;;
9254;SDS011;4663;49.120;9.730;2022-12-29T14:15:50;14.55;;;13.80;;
9254;SDS011;4663;49.120;9.730;2022-12-29T14:31:01;14.25;;;12.88;;
9254;SDS011;4663;49.120;9.730;2022-12-29T14:33:29;14.13;;;13.02;;
9254;SDS011;4663;49.120;9.730;2022-12-29T14:35:56;14.23;;;13.43;;
9254;SDS011;4663;49.120;9.730;2022-12-29T14:38:45;14.20;;;13.40;;
9254;SDS011;4663;49.120;9.730;2022-12-29T14:41:16;14.85;;;14.05;;
9254;SDS011;4663;49.120;9.730;2022-12-29T14:44:32;13.13;;;12.30;;
9254;SDS011;4663;49.120;9.730;2022-12-29T14:49:14;13.60;;;12.85;;
9254;SDS011;4663;49.120;9.730;2022-12-29T14:51:43;13.57;;;12.88;;
9254;SDS011;4663;49.120;9.730;2022-12-29T14:57:07;14.45;;;13.75;;
9254;SDS011;4663;49.120;9.730;2022-12-29T14:59:55;14.75;;;13.85;;
9254;SDS011;4663;49.120;9.730;2022-12-29T15:02:26;14.15;;;13.35;;
9254;SDS011;4663;49.120;9.730;2022-12-29T15:05:04;13.80;;;13.07;;
9254;SDS011;4663;49.120;9.730;2022-12-29T15:07:31;15.20;;;13.60;;
9254;SDS011;4663;49.120;9.730;2022-12-29T15:10:11;14.00;;;13.30;;
9254;SDS011;4663;49.120;9.730;2022-12-29T15:12:48;14.80;;;13.88;;
9254;SDS011;4663;49.120;9.730;2022-12-29T15:17:42;15.55;;;14.75;;
9254;SDS011;4663;49.120;9.730;2022-12-29T15:23:10;15.95;;;15.15;;
9254;SDS011;4663;49.120;9.730;2022-12-29T15:28:26;16.67;;;15.80;;
9254;SDS011;4663;49.120;9.730;2022-12-29T15:30:54;17.92;;;17.02;;
9254;SDS011;4663;49.120;9.730;2022-12-29T15:33:21;19.60;;;18.55;;
9254;SDS011;4663;49.120;9.730;2022-12-29T15:35:51;19.52;;;18.52;;
9254;SDS011;4663;49.120;9.730;2022-12-29T15:38:22;22.48;;;21.23;;
9254;SDS011;4663;49.120;9.730;2022-12-29T15:46:32;27.70;;;26.17;;
9254;SDS011;4663;49.120;9.730;2022-12-29T15:48:58;26.42;;;25.05;;
9254;SDS011;4663;49.120;9.730;2022-12-29T15:51:30;29.35;;;27.48;;
9254;SDS011;4663;49.120;9.730;2022-12-29T15:54:00;31.20;;;29.40;;
9254;SDS011;4663;49.120;9.730;2022-12-29T15:56:28;32.45;;;30.70;;
9254;SDS011;4663;49.120;9.730;2022-12-29T15:58:55;31.38;;;29.70;;
9254;SDS011;4663;49.120;9.730;2022-12-29T16:01:24;33.55;;;31.65;;
9254;SDS011;4663;49.120;9.730;2022-12-29T16:03:52;43.33;;;41.13;;
9254;SDS011;4663;49.120;9.730;2022-12-29T16:08:57;64.63;;;61.47;;
9254;SDS011;4663;49.120;9.730;2022-12-29T16:11:27;39.00;;;37.10;;
9254;SDS011;4663;49.120;9.730;2022-12-29T16:14:00;37.67;;;35.85;;
9254;SDS011;4663;49.120;9.730;2022-12-29T16:16:29;34.78;;;32.88;;
9254;SDS011;4663;49.120;9.730;2022-12-29T16:19:04;35.85;;;34.10;;
9254;SDS011;4663;49.120;9.730;2022-12-29T16:21:37;35.03;;;33.30;;
9254;SDS011;4663;49.120;9.730;2022-12-29T16:24:07;38.17;;;36.10;;
9254;SDS011;4663;49.120;9.730;2022-12-29T16:26:38;36.47;;;34.72;;
9254;SDS011;4663;49.120;9.730;2022-12-29T16:29:05;34.85;;;33.20;;
9254;SDS011;4663;49.120;9.730;2022-12-29T16:34:10;32.17;;;30.58;;
9254;SDS011;4663;49.120;9.730;2022-12-29T16:36:40;26.38;;;25.00;;
9254;SDS011;4663;49.120;9.730;2022-12-29T16:41:54;24.45;;;23.15;;
9254;SDS011;4663;49.120;9.730;2022-12-29T16:44:22;25.00;;;23.55;;
9254;SDS011;4663;49.120;9.730;2022-12-29T16:49:29;21.52;;;20.38;;
9254;SDS011;4663;49.120;9.730;2022-12-29T16:51:56;22.47;;;21.37;;
9254;SDS011;4663;49.120;9.730;2022-12-29T16:54:23;20.10;;;19.13;;
9254;SDS011;4663;49.120;9.730;2022-12-29T16:56:53;15.75;;;15.00;;
9254;SDS011;4663;49.120;9.730;2022-12-29T16:59:33;17.40;;;16.47;;
9254;SDS011;4663;49.120;9.730;2022-12-29T17:02:05;16.97;;;16.07;;
9254;SDS011;4663;49.120;9.730;2022-12-29T17:04:41;14.53;;;13.73;;
9254;SDS011;4663;49.120;9.730;2022-12-29T17:07:26;15.73;;;14.97;;
9254;SDS011;4663;49.120;9.730;2022-12-29T17:09:52;16.80;;;16.00;;
9254;SDS011;4663;49.120;9.730;2022-12-29T17:12:25;16.23;;;15.43;;
9254;SDS011;4663;49.120;9.730;2022-12-29T17:17:29;18.03;;;17.13;;
9254;SDS011;4663;49.120;9.730;2022-12-29T17:20:05;17.60;;;16.70;;
9254;SDS011;4663;49.120;9.730;2022-12-29T17:22:42;18.13;;;17.20;;
9254;SDS011;4663;49.120;9.730;2022-12-29T17:25:12;17.33;;;16.53;;
9254;SDS011;4663;49.120;9.730;2022-12-29T17:30:18;20.17;;;18.57;;
9254;SDS011;4663;49.120;9.730;2022-12-29T17:32:50;18.47;;;17.37;;
9254;SDS011;4663;49.120;9.730;2022-12-29T17:35:35;18.50;;;17.60;;
9254;SDS011;4663;49.120;9.730;2022-12-29T17:38:01;19.30;;;18.30;;
9254;SDS011;4663;49.120;9.730;2022-12-29T17:40:27;19.97;;;18.83;;
9254;SDS011;4663;49.120;9.730;2022-12-29T17:42:56;20.57;;;19.47;;
9254;SDS011;4663;49.120;9.730;2022-12-29T17:45:23;19.70;;;18.57;;
9254;SDS011;4663;49.120;9.730;2022-12-29T17:47:51;18.83;;;17.83;;
9254;SDS011;4663;49.120;9.730;2022-12-29T17:50:18;17.23;;;16.17;;
9254;SDS011;4663;49.120;9.730;2022-12-29T17:52:47;18.77;;;17.87;;
9254;SDS011;4663;49.120;9.730;2022-12-29T17:55:16;17.97;;;16.67;;
9254;SDS011;4663;49.120;9.730;2022-12-29T17:57:43;19.23;;;18.33;;
9254;SDS011;4663;49.120;9.730;2022-12-29T18:00:19;19.47;;;18.17;;
9254;SDS011;4663;49.120;9.730;2022-12-29T18:02:47;21.00;;;19.90;;
9254;SDS011;4663;49.120;9.730;2022-12-29T18:05:18;19.40;;;18.33;;
9254;SDS011;4663;49.120;9.730;2022-12-29T18:07:52;19.30;;;18.23;;
9254;SDS011;4663;49.120;9.730;2022-12-29T18:10:22;20.17;;;19.03;;